Terminal Aerodrome Forecast
Issued by NWS

Home | Current Version | Previous Version | Text Only | Print | Product List | Glossary On
Versions: 1 2 3 4 5 6 7 8 9 10 11 12 13 14 15
371
FTUS42 KMLB 181738
TAFISM
TAF
KISM 181738Z 1818/1918 01011G14KT P6SM SCT016 BKN110
     FM190000 02007KT P6SM FEW040 SCT250
     FM191500 04010KT P6SM FEW025 SCT050=

USA.gov is the U.S. government's official web portal to all federal, state and local government web resources and services.